sensor_id;sensor_type;location;lat;lon;timestamp;pressure;altitude;pressure_sealevel;temperature;humidity
30554;BME280;17335;50.720;7.452;2024-03-23T00:53:28;98572.69;;;7.80;100.00
30554;BME280;17335;50.720;7.452;2024-03-23T00:55:53;98572.00;;;7.78;100.00
30554;BME280;17335;50.720;7.452;2024-03-23T00:58:19;98583.72;;;7.67;100.00
30554;BME280;17335;50.720;7.452;2024-03-23T01:00:45;98582.28;;;7.73;100.00
30554;BME280;17335;50.720;7.452;2024-03-23T01:03:10;98593.84;;;7.64;100.00
30554;BME280;17335;50.720;7.452;2024-03-23T01:05:36;98572.47;;;7.64;100.00
30554;BME280;17335;50.720;7.452;2024-03-23T01:08:01;98558.03;;;7.57;100.00
30554;BME280;17335;50.720;7.452;2024-03-23T01:10:27;98555.66;;;7.44;100.00
30554;BME280;17335;50.720;7.452;2024-03-23T01:12:53;98562.69;;;7.35;100.00
30554;BME280;17335;50.720;7.452;2024-03-23T01:15:18;98576.22;;;7.24;100.00
30554;BME280;17335;50.720;7.452;2024-03-23T01:17:44;98571.44;;;7.18;100.00
30554;BME280;17335;50.720;7.452;2024-03-23T01:20:09;98569.75;;;7.17;100.00
30554;BME280;17335;50.720;7.452;2024-03-23T01:22:35;98564.97;;;7.20;100.00
30554;BME280;17335;50.720;7.452;2024-03-23T01:25:01;98569.03;;;7.24;100.00
30554;BME280;17335;50.720;7.452;2024-03-23T01:27:26;98566.09;;;7.18;100.00
30554;BME280;17335;50.720;7.452;2024-03-23T01:29:52;98574.25;;;7.16;100.00
30554;BME280;17335;50.720;7.452;2024-03-23T01:32:18;98578.75;;;7.16;100.00
30554;BME280;17335;50.720;7.452;2024-03-23T01:34:44;98583.81;;;7.09;100.00
30554;BME280;17335;50.720;7.452;2024-03-23T01:37:10;98573.81;;;7.21;100.00
30554;BME280;17335;50.720;7.452;2024-03-23T01:39:35;98578.19;;;7.12;100.00
30554;BME280;17335;50.720;7.452;2024-03-23T01:42:01;98565.41;;;7.06;100.00
30554;BME280;17335;50.720;7.452;2024-03-23T01:44:26;98559.50;;;7.02;100.00
30554;BME280;17335;50.720;7.452;2024-03-23T01:46:52;98568.63;;;7.09;100.00
30554;BME280;17335;50.720;7.452;2024-03-23T01:49:18;98575.81;;;7.09;100.00
30554;BME280;17335;50.720;7.452;2024-03-23T01:51:44;98573.56;;;7.14;100.00
30554;BME280;17335;50.720;7.452;2024-03-23T01:54:10;98567.25;;;7.05;100.00
30554;BME280;17335;50.720;7.452;2024-03-23T01:56:36;98570.75;;;7.06;100.00
30554;BME280;17335;50.720;7.452;2024-03-23T01:59:05;98566.69;;;7.02;100.00
30554;BME280;17335;50.720;7.452;2024-03-23T02:03:56;98552.91;;;7.06;100.00
30554;BME280;17335;50.720;7.452;2024-03-23T02:06:23;98562.19;;;6.92;100.00
30554;BME280;17335;50.720;7.452;2024-03-23T02:08:49;98550.81;;;7.00;100.00
30554;BME280;17335;50.720;7.452;2024-03-23T02:11:14;98535.34;;;6.94;100.00
30554;BME280;17335;50.720;7.452;2024-03-23T02:13:40;98530.72;;;6.96;100.00
30554;BME280;17335;50.720;7.452;2024-03-23T02:16:06;98529.88;;;6.86;100.00
30554;BME280;17335;50.720;7.452;2024-03-23T02:18:32;98541.69;;;6.83;100.00
30554;BME280;17335;50.720;7.452;2024-03-23T02:20:57;98540.28;;;6.79;100.00
30554;BME280;17335;50.720;7.452;2024-03-23T02:23:23;98526.78;;;6.81;100.00
30554;BME280;17335;50.720;7.452;2024-03-23T02:25:50;98520.91;;;6.77;100.00
30554;BME280;17335;50.720;7.452;2024-03-23T02:28:16;98514.03;;;6.74;100.00
30554;BME280;17335;50.720;7.452;2024-03-23T02:30:42;98524.28;;;6.79;100.00
30554;BME280;17335;50.720;7.452;2024-03-23T02:33:08;98535.94;;;6.78;100.00
30554;BME280;17335;50.720;7.452;2024-03-23T02:35:34;98541.13;;;6.89;100.00
30554;BME280;17335;50.720;7.452;2024-03-23T02:37:59;98539.44;;;6.79;100.00
30554;BME280;17335;50.720;7.452;2024-03-23T02:40:25;98547.03;;;6.83;100.00
30554;BME280;17335;50.720;7.452;2024-03-23T02:42:52;98533.81;;;6.82;100.00
30554;BME280;17335;50.720;7.452;2024-03-23T02:45:18;98534.81;;;6.90;100.00
30554;BME280;17335;50.720;7.452;2024-03-23T02:47:43;98541.28;;;6.88;100.00
30554;BME280;17335;50.720;7.452;2024-03-23T02:50:09;98534.53;;;6.93;100.00
30554;BME280;17335;50.720;7.452;2024-03-23T02:52:35;98527.38;;;6.84;100.00
30554;BME280;17335;50.720;7.452;2024-03-23T02:55:01;98525.13;;;6.80;100.00
30554;BME280;17335;50.720;7.452;2024-03-23T02:57:27;98525.69;;;6.83;100.00
30554;BME280;17335;50.720;7.452;2024-03-23T02:59:53;98517.94;;;6.70;100.00
30554;BME280;17335;50.720;7.452;2024-03-23T03:02:20;98512.50;;;6.62;100.00
30554;BME280;17335;50.720;7.452;2024-03-23T03:04:45;98517.53;;;6.65;100.00
30554;BME280;17335;50.720;7.452;2024-03-23T03:07:11;98521.75;;;6.58;100.00
30554;BME280;17335;50.720;7.452;2024-03-23T03:09:36;98525.09;;;6.60;100.00
30554;BME280;17335;50.720;7.452;2024-03-23T03:12:05;98525.25;;;6.49;100.00
30554;BME280;17335;50.720;7.452;2024-03-23T03:14:31;98530.19;;;6.53;100.00
30554;BME280;17335;50.720;7.452;2024-03-23T03:16:56;98541.69;;;6.54;100.00
30554;BME280;17335;50.720;7.452;2024-03-23T03:19:22;98528.34;;;6.34;100.00
30554;BME280;17335;50.720;7.452;2024-03-23T03:21:47;98529.13;;;6.25;100.00
30554;BME280;17335;50.720;7.452;2024-03-23T03:24:13;98528.72;;;6.10;100.00
30554;BME280;17335;50.720;7.452;2024-03-23T03:26:39;98533.16;;;6.00;100.00
30554;BME280;17335;50.720;7.452;2024-03-23T03:29:05;98550.25;;;5.97;100.00
30554;BME280;17335;50.720;7.452;2024-03-23T03:31:30;98552.09;;;5.76;100.00
30554;BME280;17335;50.720;7.452;2024-03-23T03:33:56;98543.94;;;5.68;100.00
30554;BME280;17335;50.720;7.452;2024-03-23T03:36:22;98551.75;;;5.59;100.00
30554;BME280;17335;50.720;7.452;2024-03-23T03:38:47;98571.47;;;5.57;100.00
30554;BME280;17335;50.720;7.452;2024-03-23T03:41:13;98567.91;;;5.47;100.00
30554;BME280;17335;50.720;7.452;2024-03-23T03:43:38;98564.88;;;5.51;100.00
30554;BME280;17335;50.720;7.452;2024-03-23T03:46:04;98576.44;;;5.40;100.00
30554;BME280;17335;50.720;7.452;2024-03-23T03:48:29;98568.94;;;5.24;100.00
30554;BME280;17335;50.720;7.452;2024-03-23T03:50:55;98568.72;;;5.16;100.00
30554;BME280;17335;50.720;7.452;2024-03-23T03:53:21;98572.09;;;4.97;100.00
30554;BME280;17335;50.720;7.452;2024-03-23T03:55:46;98565.66;;;5.00;100.00
30554;BME280;17335;50.720;7.452;2024-03-23T03:58:12;98558.22;;;4.94;100.00
30554;BME280;17335;50.720;7.452;2024-03-23T04:00:38;98557.22;;;4.95;100.00
30554;BME280;17335;50.720;7.452;2024-03-23T04:03:03;98565.84;;;4.87;100.00
30554;BME280;17335;50.720;7.452;2024-03-23T04:05:29;98566.34;;;4.81;100.00
30554;BME280;17335;50.720;7.452;2024-03-23T04:07:55;98567.22;;;4.81;100.00
30554;BME280;17335;50.720;7.452;2024-03-23T04:10:20;98566.28;;;4.71;100.00
30554;BME280;17335;50.720;7.452;2024-03-23T04:12:47;98561.44;;;4.76;100.00
30554;BME280;17335;50.720;7.452;2024-03-23T04:15:12;98570.72;;;4.82;100.00
30554;BME280;17335;50.720;7.452;2024-03-23T04:17:38;98565.53;;;4.69;100.00
30554;BME280;17335;50.720;7.452;2024-03-23T04:20:04;98567.38;;;4.68;100.00
30554;BME280;17335;50.720;7.452;2024-03-23T04:22:34;98581.97;;;4.74;100.00
30554;BME280;17335;50.720;7.452;2024-03-23T04:25:00;98588.03;;;4.65;100.00
30554;BME280;17335;50.720;7.452;2024-03-23T04:27:34;98586.88;;;4.58;100.00
30554;BME280;17335;50.720;7.452;2024-03-23T04:30:01;98595.56;;;4.60;100.00
30554;BME280;17335;50.720;7.452;2024-03-23T04:32:27;98604.75;;;4.56;100.00
30554;BME280;17335;50.720;7.452;2024-03-23T04:34:53;98606.31;;;4.47;100.00
30554;BME280;17335;50.720;7.452;2024-03-23T04:37:18;98611.91;;;4.44;100.00
30554;BME280;17335;50.720;7.452;2024-03-23T04:39:45;98606.84;;;4.41;100.00
30554;BME280;17335;50.720;7.452;2024-03-23T04:42:10;98603.53;;;4.48;100.00
30554;BME280;17335;50.720;7.452;2024-03-23T04:44:37;98613.69;;;4.43;100.00
30554;BME280;17335;50.720;7.452;2024-03-23T04:47:03;98615.03;;;4.49;100.00
30554;BME280;17335;50.720;7.452;2024-03-23T04:49:28;98617.81;;;4.36;100.00
30554;BME280;17335;50.720;7.452;2024-03-23T04:51:54;98615.56;;;4.31;100.00
30554;BME280;17335;50.720;7.452;2024-03-23T04:54:19;98624.31;;;4.43;100.00
30554;BME280;17335;50.720;7.452;2024-03-23T04:56:46;98626.91;;;4.34;100.00
30554;BME280;17335;50.720;7.452;2024-03-23T04:59:12;98637.28;;;4.37;100.00
30554;BME280;17335;50.720;7.452;2024-03-23T05:01:37;98630.50;;;4.32;100.00
30554;BME280;17335;50.720;7.452;2024-03-23T05:04:05;98631.03;;;4.26;100.00
30554;BME280;17335;50.720;7.452;2024-03-23T05:06:31;98637.41;;;4.24;100.00
30554;BME280;17335;50.720;7.452;2024-03-23T05:08:56;98644.66;;;4.22;100.00
30554;BME280;17335;50.720;7.452;2024-03-23T05:11:22;98643.19;;;4.18;100.00
30554;BME280;17335;50.720;7.452;2024-03-23T05:13:47;98643.09;;;4.30;100.00
30554;BME280;17335;50.720;7.452;2024-03-23T05:16:13;98645.03;;;4.28;100.00
30554;BME280;17335;50.720;7.452;2024-03-23T05:18:38;98639.81;;;4.27;100.00
30554;BME280;17335;50.720;7.452;2024-03-23T05:21:04;98639.94;;;4.37;100.00
30554;BME280;17335;50.720;7.452;2024-03-23T05:23:29;98635.34;;;4.27;100.00
30554;BME280;17335;50.720;7.452;2024-03-23T05:25:55;98642.25;;;4.19;100.00
30554;BME280;17335;50.720;7.452;2024-03-23T05:28:21;98636.22;;;4.17;100.00
30554;BME280;17335;50.720;7.452;2024-03-23T05:30:54;98650.47;;;4.27;100.00
30554;BME280;17335;50.720;7.452;2024-03-23T05:33:20;98645.25;;;4.25;100.00
30554;BME280;17335;50.720;7.452;2024-03-23T05:35:47;98639.81;;;4.27;100.00
30554;BME280;17335;50.720;7.452;2024-03-23T05:38:13;98644.44;;;4.25;100.00
30554;BME280;17335;50.720;7.452;2024-03-23T05:40:39;98639.31;;;4.33;100.00
30554;BME280;17335;50.720;7.452;2024-03-23T05:43:08;98638.13;;;4.37;100.00
30554;BME280;17335;50.720;7.452;2024-03-23T05:45:34;98647.53;;;4.41;100.00
30554;BME280;17335;50.720;7.452;2024-03-23T05:48:00;98644.41;;;4.36;100.00
30554;BME280;17335;50.720;7.452;2024-03-23T05:50:25;98638.19;;;4.58;100.00
30554;BME280;17335;50.720;7.452;2024-03-23T05:52:51;98635.72;;;4.45;100.00
30554;BME280;17335;50.720;7.452;2024-03-23T05:55:16;98640.75;;;4.48;100.00
30554;BME280;17335;50.720;7.452;2024-03-23T05:57:42;98648.00;;;4.46;100.00
30554;BME280;17335;50.720;7.452;2024-03-23T06:00:08;98647.53;;;4.53;100.00
30554;BME280;17335;50.720;7.452;2024-03-23T06:02:44;98657.56;;;4.49;100.00
30554;BME280;17335;50.720;7.452;2024-03-23T06:05:12;98664.66;;;4.48;100.00
30554;BME280;17335;50.720;7.452;2024-03-23T06:07:38;98663.72;;;4.49;100.00
30554;BME280;17335;50.720;7.452;2024-03-23T06:10:05;98669.22;;;4.69;100.00
30554;BME280;17335;50.720;7.452;2024-03-23T06:12:31;98668.28;;;4.59;100.00
30554;BME280;17335;50.720;7.452;2024-03-23T06:14:57;98660.88;;;4.74;100.00
30554;BME280;17335;50.720;7.452;2024-03-23T06:17:22;98669.56;;;4.76;100.00
30554;BME280;17335;50.720;7.452;2024-03-23T06:19:48;98663.66;;;4.72;100.00
30554;BME280;17335;50.720;7.452;2024-03-23T06:22:14;98658.22;;;4.74;100.00
30554;BME280;17335;50.720;7.452;2024-03-23T06:24:40;98658.47;;;4.82;100.00
30554;BME280;17335;50.720;7.452;2024-03-23T06:27:05;98663.84;;;4.92;100.00
30554;BME280;17335;50.720;7.452;2024-03-23T06:29:31;98658.53;;;4.92;100.00
30554;BME280;17335;50.720;7.452;2024-03-23T06:31:57;98659.00;;;4.97;100.00
30554;BME280;17335;50.720;7.452;2024-03-23T06:34:23;98659.75;;;4.99;100.00
30554;BME280;17335;50.720;7.452;2024-03-23T06:36:49;98663.13;;;5.01;100.00
30554;BME280;17335;50.720;7.452;2024-03-23T06:39:17;98664.78;;;5.02;100.00
30554;BME280;17335;50.720;7.452;2024-03-23T06:41:51;98673.38;;;5.05;100.00
30554;BME280;17335;50.720;7.452;2024-03-23T06:44:17;98681.97;;;5.30;100.00
30554;BME280;17335;50.720;7.452;2024-03-23T06:46:43;98676.22;;;5.14;100.00
30554;BME280;17335;50.720;7.452;2024-03-23T06:49:08;98679.47;;;5.17;100.00
30554;BME280;17335;50.720;7.452;2024-03-23T06:51:34;98684.56;;;5.20;100.00
30554;BME280;17335;50.720;7.452;2024-03-23T06:53:59;98679.22;;;5.20;100.00
30554;BME280;17335;50.720;7.452;2024-03-23T06:56:25;98686.75;;;5.15;100.00
30554;BME280;17335;50.720;7.452;2024-03-23T06:58:50;98679.47;;;5.17;100.00
30554;BME280;17335;50.720;7.452;2024-03-23T07:01:16;98675.84;;;5.18;100.00
30554;BME280;17335;50.720;7.452;2024-03-23T07:03:42;98678.31;;;5.10;100.00
30554;BME280;17335;50.720;7.452;2024-03-23T07:06:09;98677.22;;;5.13;100.00
30554;BME280;17335;50.720;7.452;2024-03-23T07:08:35;98686.25;;;5.21;100.00
30554;BME280;17335;50.720;7.452;2024-03-23T07:11:01;98690.31;;;5.37;100.00
30554;BME280;17335;50.720;7.452;2024-03-23T07:13:28;98687.19;;;5.53;100.00
30554;BME280;17335;50.720;7.452;2024-03-23T07:15:53;98676.41;;;5.54;100.00
30554;BME280;17335;50.720;7.452;2024-03-23T07:18:21;98674.13;;;5.50;100.00
30554;BME280;17335;50.720;7.452;2024-03-23T07:20:54;98683.00;;;5.50;100.00
30554;BME280;17335;50.720;7.452;2024-03-23T07:23:19;98684.19;;;5.46;100.00
30554;BME280;17335;50.720;7.452;2024-03-23T07:25:45;98687.31;;;5.51;100.00
30554;BME280;17335;50.720;7.452;2024-03-23T07:28:11;98684.41;;;5.75;100.00
30554;BME280;17335;50.720;7.452;2024-03-23T07:30:36;98692.00;;;5.80;100.00
30554;BME280;17335;50.720;7.452;2024-03-23T07:33:02;98694.88;;;5.88;100.00
30554;BME280;17335;50.720;7.452;2024-03-23T07:35:27;98698.00;;;5.93;100.00
30554;BME280;17335;50.720;7.452;2024-03-23T07:37:53;98696.56;;;6.10;100.00
30554;BME280;17335;50.720;7.452;2024-03-23T07:40:18;98689.53;;;6.09;100.00
30554;BME280;17335;50.720;7.452;2024-03-23T07:42:45;98693.63;;;6.13;100.00
30554;BME280;17335;50.720;7.452;2024-03-23T07:45:10;98687.81;;;6.29;100.00
30554;BME280;17335;50.720;7.452;2024-03-23T07:47:37;98685.59;;;6.34;100.00
30554;BME280;17335;50.720;7.452;2024-03-23T07:50:02;98686.31;;;6.36;100.00
30554;BME280;17335;50.720;7.452;2024-03-23T07:52:28;98686.03;;;6.40;100.00
30554;BME280;17335;50.720;7.452;2024-03-23T07:54:54;98695.19;;;6.47;100.00
30554;BME280;17335;50.720;7.452;2024-03-23T07:57:20;98688.78;;;6.59;100.00
30554;BME280;17335;50.720;7.452;2024-03-23T07:59:45;98699.69;;;6.56;100.00
30554;BME280;17335;50.720;7.452;2024-03-23T08:02:11;98699.09;;;6.43;100.00
30554;BME280;17335;50.720;7.452;2024-03-23T08:04:36;98692.88;;;6.32;100.00
30554;BME280;17335;50.720;7.452;2024-03-23T08:07:02;98694.50;;;6.54;100.00
30554;BME280;17335;50.720;7.452;2024-03-23T08:09:28;98696.34;;;6.54;100.00
30554;BME280;17335;50.720;7.452;2024-03-23T08:11:53;98690.03;;;6.55;100.00
30554;BME280;17335;50.720;7.452;2024-03-23T08:14:19;98697.16;;;6.54;100.00
30554;BME280;17335;50.720;7.452;2024-03-23T08:16:45;98690.25;;;6.42;100.00
30554;BME280;17335;50.720;7.452;2024-03-23T08:19:14;98694.09;;;6.59;100.00
30554;BME280;17335;50.720;7.452;2024-03-23T08:21:40;98699.91;;;6.74;100.00
30554;BME280;17335;50.720;7.452;2024-03-23T08:24:05;98700.09;;;6.92;100.00
30554;BME280;17335;50.720;7.452;2024-03-23T08:26:32;98704.31;;;7.04;100.00
30554;BME280;17335;50.720;7.452;2024-03-23T08:28:58;98701.09;;;7.20;100.00
30554;BME280;17335;50.720;7.452;2024-03-23T08:31:24;98693.94;;;7.21;100.00
30554;BME280;17335;50.720;7.452;2024-03-23T08:33:49;98699.69;;;7.16;100.00
30554;BME280;17335;50.720;7.452;2024-03-23T08:36:15;98700.09;;;7.11;100.00
30554;BME280;17335;50.720;7.452;2024-03-23T08:38:40;98704.31;;;7.04;100.00
30554;BME280;17335;50.720;7.452;2024-03-23T08:41:10;98707.56;;;7.18;100.00
30554;BME280;17335;50.720;7.452;2024-03-23T08:43:38;98706.88;;;7.16;100.00
30554;BME280;17335;50.720;7.452;2024-03-23T08:46:11;98712.75;;;7.00;100.00
30554;BME280;17335;50.720;7.452;2024-03-23T08:48:38;98703.44;;;6.84;100.00
30554;BME280;17335;50.720;7.452;2024-03-23T08:51:08;98705.38;;;6.72;100.00
30554;BME280;17335;50.720;7.452;2024-03-23T08:53:37;98702.28;;;6.67;100.00
30554;BME280;17335;50.720;7.452;2024-03-23T08:56:03;98702.63;;;6.53;100.00
30554;BME280;17335;50.720;7.452;2024-03-23T08:58:31;98701.41;;;6.57;100.00
30554;BME280;17335;50.720;7.452;2024-03-23T09:01:02;98702.56;;;6.74;100.00
30554;BME280;17335;50.720;7.452;2024-03-23T09:03:28;98708.75;;;6.74;100.00
30554;BME280;17335;50.720;7.452;2024-03-23T09:05:54;98697.22;;;6.64;100.00
30554;BME280;17335;50.720;7.452;2024-03-23T09:08:20;98705.94;;;6.86;100.00
30554;BME280;17335;50.720;7.452;2024-03-23T09:10:47;98699.22;;;6.82;100.00
30554;BME280;17335;50.720;7.452;2024-03-23T09:13:13;98693.34;;;6.88;100.00
30554;BME280;17335;50.720;7.452;2024-03-23T09:15:46;98682.53;;;6.99;100.00
30554;BME280;17335;50.720;7.452;2024-03-23T09:18:18;98691.41;;;7.09;100.00
30554;BME280;17335;50.720;7.452;2024-03-23T09:20:44;98691.97;;;7.23;100.00
30554;BME280;17335;50.720;7.452;2024-03-23T09:23:09;98688.88;;;7.37;100.00
30554;BME280;17335;50.720;7.452;2024-03-23T09:25:38;98679.75;;;7.40;100.00
30554;BME280;17335;50.720;7.452;2024-03-23T09:28:05;98682.13;;;7.62;100.00
30554;BME280;17335;50.720;7.452;2024-03-23T09:30:35;98684.34;;;7.77;100.00
30554;BME280;17335;50.720;7.452;2024-03-23T09:33:01;98668.31;;;7.86;100.00
30554;BME280;17335;50.720;7.452;2024-03-23T09:35:26;98677.81;;;8.08;100.00
30554;BME280;17335;50.720;7.452;2024-03-23T09:37:52;98673.25;;;8.29;100.00
30554;BME280;17335;50.720;7.452;2024-03-23T09:40:18;98658.09;;;8.19;100.00
30554;BME280;17335;50.720;7.452;2024-03-23T09:42:49;98661.38;;;8.03;100.00
30554;BME280;17335;50.720;7.452;2024-03-23T09:45:23;98669.34;;;7.66;100.00
30554;BME280;17335;50.720;7.452;2024-03-23T09:47:51;98672.16;;;7.35;100.00
30554;BME280;17335;50.720;7.452;2024-03-23T09:50:17;98676.38;;;7.18;100.00
30554;BME280;17335;50.720;7.452;2024-03-23T09:52:43;98673.56;;;7.29;100.00
30554;BME280;17335;50.720;7.452;2024-03-23T09:55:11;98686.09;;;7.29;100.00
30554;BME280;17335;50.720;7.452;2024-03-23T09:57:36;98670.06;;;7.29;100.00
30554;BME280;17335;50.720;7.452;2024-03-23T10:00:02;98669.75;;;7.32;100.00
30554;BME280;17335;50.720;7.452;2024-03-23T10:02:28;98672.44;;;7.51;100.00
30554;BME280;17335;50.720;7.452;2024-03-23T10:04:54;98663.84;;;7.67;100.00
30554;BME280;17335;50.720;7.452;2024-03-23T10:07:20;98669.88;;;7.79;100.00
30554;BME280;17335;50.720;7.452;2024-03-23T10:09:47;98654.53;;;7.72;100.00
30554;BME280;17335;50.720;7.452;2024-03-23T10:12:16;98655.34;;;7.92;100.00
30554;BME280;17335;50.720;7.452;2024-03-23T10:14:42;98648.47;;;8.26;100.00
30554;BME280;17335;50.720;7.452;2024-03-23T10:17:19;98640.09;;;8.77;100.00
30554;BME280;17335;50.720;7.452;2024-03-23T10:19:46;98636.81;;;8.83;100.00
30554;BME280;17335;50.720;7.452;2024-03-23T10:22:18;98640.44;;;9.10;100.00
30554;BME280;17335;50.720;7.452;2024-03-23T10:24:44;98631.66;;;9.44;100.00
30554;BME280;17335;50.720;7.452;2024-03-23T10:27:15;98627.06;;;9.54;100.00
30554;BME280;17335;50.720;7.452;2024-03-23T10:29:43;98599.41;;;9.27;100.00
30554;BME280;17335;50.720;7.452;2024-03-23T10:32:10;98629.56;;;8.93;100.00
30554;BME280;17335;50.720;7.452;2024-03-23T10:34:37;98626.97;;;9.01;100.00
30554;BME280;17335;50.720;7.452;2024-03-23T10:37:04;98627.72;;;9.12;100.00
30554;BME280;17335;50.720;7.452;2024-03-23T10:39:34;98624.81;;;9.23;100.00
30554;BME280;17335;50.720;7.452;2024-03-23T10:42:02;98621.06;;;9.16;100.00
30554;BME280;17335;50.720;7.452;2024-03-23T10:44:29;98620.84;;;9.27;100.00
30554;BME280;17335;50.720;7.452;2024-03-23T10:46:57;98637.91;;;9.70;100.00
30554;BME280;17335;50.720;7.452;2024-03-23T10:49:35;98635.59;;;9.75;100.00
30554;BME280;17335;50.720;7.452;2024-03-23T10:52:05;98644.31;;;9.77;100.00
30554;BME280;17335;50.720;7.452;2024-03-23T10:54:32;98656.91;;;9.59;100.00
30554;BME280;17335;50.720;7.452;2024-03-23T10:57:11;98646.03;;;9.16;100.00
30554;BME280;17335;50.720;7.452;2024-03-23T10:59:39;98656.63;;;8.90;100.00
30554;BME280;17335;50.720;7.452;2024-03-23T11:02:05;98674.56;;;8.52;100.00
30554;BME280;17335;50.720;7.452;2024-03-23T11:04:35;98680.50;;;8.08;100.00
30554;BME280;17335;50.720;7.452;2024-03-23T11:07:01;98710.22;;;7.66;100.00
30554;BME280;17335;50.720;7.452;2024-03-23T11:09:42;98699.97;;;7.13;100.00
30554;BME280;17335;50.720;7.452;2024-03-23T11:15:02;98710.38;;;6.56;100.00
30554;BME280;17335;50.720;7.452;2024-03-23T11:17:29;98702.03;;;6.40;100.00
30554;BME280;17335;50.720;7.452;2024-03-23T11:22:45;98718.03;;;6.40;100.00
30554;BME280;17335;50.720;7.452;2024-03-23T11:25:20;98724.47;;;6.37;100.00
30554;BME280;17335;50.720;7.452;2024-03-23T11:27:48;98710.31;;;6.46;100.00
30554;BME280;17335;50.720;7.452;2024-03-23T11:30:21;98705.81;;;6.78;100.00
30554;BME280;17335;50.720;7.452;2024-03-23T11:32:57;98697.03;;;7.16;100.00
30554;BME280;17335;50.720;7.452;2024-03-23T11:35:30;98697.59;;;7.59;100.00
30554;BME280;17335;50.720;7.452;2024-03-23T11:38:11;98688.00;;;7.85;100.00
30554;BME280;17335;50.720;7.452;2024-03-23T11:40:48;98683.72;;;8.12;100.00
30554;BME280;17335;50.720;7.452;2024-03-23T11:43:15;98676.31;;;8.43;100.00
30554;BME280;17335;50.720;7.452;2024-03-23T11:45:50;98667.59;;;8.69;100.00
30554;BME280;17335;50.720;7.452;2024-03-23T11:48:22;98664.34;;;8.75;100.00
30554;BME280;17335;50.720;7.452;2024-03-23T11:50:49;98670.38;;;8.50;100.00
30554;BME280;17335;50.720;7.452;2024-03-23T11:53:20;98675.00;;;8.10;100.00
30554;BME280;17335;50.720;7.452;2024-03-23T11:58:19;98654.47;;;8.11;100.00
30554;BME280;17335;50.720;7.452;2024-03-23T12:03:26;98655.75;;;8.44;100.00
30554;BME280;17335;50.720;7.452;2024-03-23T12:05:53;98657.66;;;8.61;100.00
30554;BME280;17335;50.720;7.452;2024-03-23T12:08:21;98642.31;;;8.81;100.00
30554;BME280;17335;50.720;7.452;2024-03-23T12:13:49;98627.47;;;9.41;100.00
30554;BME280;17335;50.720;7.452;2024-03-23T12:16:20;98620.56;;;9.38;100.00
30554;BME280;17335;50.720;7.452;2024-03-23T12:18:47;98631.88;;;9.68;100.00
30554;BME280;17335;50.720;7.452;2024-03-23T12:21:13;98615.94;;;9.67;100.00
30554;BME280;17335;50.720;7.452;2024-03-23T12:23:39;98622.06;;;9.77;100.00
30554;BME280;17335;50.720;7.452;2024-03-23T12:26:05;98610.13;;;9.71;100.00
30554;BME280;17335;50.720;7.452;2024-03-23T12:28:32;98616.75;;;9.41;100.00
30554;BME280;17335;50.720;7.452;2024-03-23T12:30:57;98613.13;;;9.06;100.00
30554;BME280;17335;50.720;7.452;2024-03-23T12:33:23;98608.97;;;8.76;100.00
30554;BME280;17335;50.720;7.452;2024-03-23T12:35:50;98610.88;;;8.66;100.00
30554;BME280;17335;50.720;7.452;2024-03-23T12:38:16;98607.06;;;9.04;100.00
30554;BME280;17335;50.720;7.452;2024-03-23T12:40:46;98603.38;;;9.23;100.00
30554;BME280;17335;50.720;7.452;2024-03-23T12:43:13;98600.34;;;9.18;100.00
30554;BME280;17335;50.720;7.452;2024-03-23T12:45:39;98596.25;;;9.50;100.00
30554;BME280;17335;50.720;7.452;2024-03-23T12:48:05;98590.09;;;9.84;100.00
30554;BME280;17335;50.720;7.452;2024-03-23T12:50:30;98582.88;;;9.84;100.00
30554;BME280;17335;50.720;7.452;2024-03-23T12:52:56;98580.53;;;9.81;100.00
30554;BME280;17335;50.720;7.452;2024-03-23T12:55:21;98591.44;;;9.88;100.00
30554;BME280;17335;50.720;7.452;2024-03-23T12:57:47;98591.75;;;9.76;100.00
30554;BME280;17335;50.720;7.452;2024-03-23T13:00:13;98594.28;;;10.21;100.00
30554;BME280;17335;50.720;7.452;2024-03-23T13:02:41;98599.09;;;10.35;100.00
30554;BME280;17335;50.720;7.452;2024-03-23T13:05:07;98589.44;;;10.59;100.00
30554;BME280;17335;50.720;7.452;2024-03-23T13:07:36;98604.19;;;10.55;100.00
30554;BME280;17335;50.720;7.452;2024-03-23T13:10:03;98589.66;;;10.74;100.00
30554;BME280;17335;50.720;7.452;2024-03-23T13:12:29;98628.44;;;10.10;100.00
30554;BME280;17335;50.720;7.452;2024-03-23T13:14:54;98629.34;;;9.05;100.00
30554;BME280;17335;50.720;7.452;2024-03-23T13:17:20;98640.25;;;8.10;100.00
30554;BME280;17335;50.720;7.452;2024-03-23T13:19:46;98668.34;;;7.67;100.00
30554;BME280;17335;50.720;7.452;2024-03-23T13:22:11;98659.09;;;7.51;100.00
30554;BME280;17335;50.720;7.452;2024-03-23T13:24:37;98660.34;;;7.18;100.00
30554;BME280;17335;50.720;7.452;2024-03-23T13:27:03;98654.31;;;7.16;100.00
30554;BME280;17335;50.720;7.452;2024-03-23T13:29:30;98647.31;;;7.05;100.00
30554;BME280;17335;50.720;7.452;2024-03-23T13:31:56;98665.16;;;7.34;100.00
30554;BME280;17335;50.720;7.452;2024-03-23T13:34:22;98662.19;;;6.98;100.00
30554;BME280;17335;50.720;7.452;2024-03-23T13:36:48;98645.47;;;6.86;100.00
30554;BME280;17335;50.720;7.452;2024-03-23T13:39:14;98646.31;;;7.06;100.00
30554;BME280;17335;50.720;7.452;2024-03-23T13:41:44;98649.41;;;7.31;100.00
30554;BME280;17335;50.720;7.452;2024-03-23T13:44:13;98635.63;;;7.55;100.00
30554;BME280;17335;50.720;7.452;2024-03-23T13:46:42;98621.53;;;7.73;100.00
30554;BME280;17335;50.720;7.452;2024-03-23T13:49:30;98610.44;;;8.05;100.00
30554;BME280;17335;50.720;7.452;2024-03-23T13:51:56;98613.53;;;8.38;100.00
30554;BME280;17335;50.720;7.452;2024-03-23T13:54:25;98607.41;;;8.55;100.00
30554;BME280;17335;50.720;7.452;2024-03-23T13:56:52;98619.28;;;8.71;100.00
30554;BME280;17335;50.720;7.452;2024-03-23T13:59:18;98616.94;;;8.86;100.00
30554;BME280;17335;50.720;7.452;2024-03-23T14:01:44;98602.25;;;8.90;100.00
30554;BME280;17335;50.720;7.452;2024-03-23T14:04:13;98601.91;;;8.57;100.00
30554;BME280;17335;50.720;7.452;2024-03-23T14:06:39;98588.63;;;8.65;100.00